createdAt,value
2019-01-11T02:22:17.091Z,26.10
2019-01-11T02:24:47.276Z,27.60
2019-01-11T02:27:16.786Z,30.10
2019-01-11T02:29:46.085Z,25.93
2019-01-11T02:32:17.331Z,28.40
2019-01-11T02:34:46.755Z,29.27
2019-01-11T02:37:16.495Z,27.40
2019-01-11T02:39:46.326Z,29.87
2019-01-11T02:42:16.168Z,25.77
2019-01-11T02:44:45.991Z,26.70
2019-01-11T02:47:15.964Z,28.87
2019-01-11T02:49:45.266Z,30.63
2019-01-11T02:52:15.102Z,30.20
2019-01-11T02:54:44.359Z,27.47
2019-01-11T02:57:14.241Z,24.57
2019-01-11T02:59:43.500Z,27.73
2019-01-11T03:02:14.041Z,29.17
2019-01-11T03:04:43.294Z,26.63
2019-01-11T03:07:12.607Z,29.03
2019-01-11T03:09:42.016Z,28.57
2019-01-11T03:12:11.347Z,32.20
2019-01-11T03:14:40.713Z,31.93
2019-01-11T03:17:10.343Z,30.23
2019-01-11T03:19:39.647Z,31.67
2019-01-11T03:22:08.904Z,35.27
2019-01-11T03:24:38.506Z,33.13
2019-01-11T03:27:08.430Z,29.50
2019-01-11T03:29:38.204Z,30.17
2019-01-11T03:32:07.512Z,31.23
2019-01-11T03:34:38.404Z,24.23
2019-01-11T03:37:08.696Z,26.37
2019-01-11T03:39:38.028Z,29.60
2019-01-11T03:42:08.977Z,25.93
2019-01-11T03:44:38.228Z,24.30
2019-01-11T03:47:08.100Z,26.60
2019-01-11T03:49:37.925Z,26.60
2019-01-11T03:52:07.184Z,25.93
2019-01-11T03:54:36.490Z,21.43
2019-01-11T03:57:06.418Z,25.80
2019-01-11T03:59:35.676Z,21.00
2019-01-11T04:02:04.969Z,22.00
2019-01-11T04:04:34.244Z,25.60
2019-01-11T04:07:03.798Z,23.20
2019-01-11T04:09:34.023Z,24.47
2019-01-11T04:12:03.911Z,24.17
2019-01-11T04:14:33.735Z,24.47
2019-01-11T04:17:03.079Z,27.10
2019-01-11T04:19:32.368Z,26.10
2019-01-11T04:22:03.265Z,27.13
2019-01-11T04:24:34.726Z,28.53
2019-01-11T04:27:04.604Z,28.40
2019-01-11T04:29:33.857Z,27.00
2019-01-11T04:32:03.480Z,30.10
2019-01-11T04:34:33.286Z,25.20
2019-01-11T04:37:03.609Z,29.20
2019-01-11T04:39:34.143Z,26.57
2019-01-11T04:42:03.444Z,25.40
2019-01-11T04:44:33.369Z,24.10
2019-01-11T04:47:02.673Z,27.00
2019-01-11T04:49:31.928Z,26.23
2019-01-11T04:52:01.897Z,27.13
2019-01-11T04:54:31.863Z,23.83
2019-01-11T04:57:01.130Z,22.77
2019-01-11T04:59:30.905Z,26.00
2019-01-11T05:02:00.833Z,21.17
2019-01-11T05:04:30.809Z,24.23
2019-01-11T05:07:00.059Z,22.77
2019-01-11T05:09:29.317Z,26.03
2019-01-11T05:11:58.612Z,21.80
2019-01-11T05:14:28.481Z,22.57
2019-01-11T05:16:58.354Z,21.57
2019-01-11T05:19:28.176Z,18.83
2019-01-11T05:21:58.141Z,17.70
2019-01-11T05:24:28.219Z,21.70
2019-01-11T05:26:58.011Z,16.57
2019-01-11T05:29:27.695Z,18.53
2019-01-11T05:31:57.643Z,16.97
2019-01-11T05:34:28.039Z,19.37
2019-01-11T05:36:57.340Z,21.57
2019-01-11T05:39:27.164Z,19.10
2019-01-11T05:41:56.813Z,18.73
2019-01-11T05:44:26.988Z,18.27
2019-01-11T05:46:56.288Z,15.50
2019-01-11T05:49:25.843Z,15.87
2019-01-11T05:51:55.452Z,16.30
2019-01-11T05:54:25.523Z,16.00
2019-01-11T05:56:54.824Z,15.40
2019-01-11T05:59:24.078Z,16.23
2019-01-11T06:01:53.340Z,15.83
2019-01-11T06:04:24.625Z,18.67
2019-01-11T06:07:07.226Z,16.13
2019-01-11T06:09:36.948Z,18.07
2019-01-11T06:12:07.171Z,19.13
2019-01-11T06:14:37.100Z,15.77
2019-01-11T06:17:07.064Z,18.77
2019-01-11T06:19:36.616Z,15.27
2019-01-11T06:22:05.876Z,13.97
2019-01-11T06:24:35.173Z,17.57
2019-01-11T06:27:04.825Z,14.40
2019-01-11T06:29:34.084Z,15.40
2019-01-11T06:32:03.736Z,16.90
2019-01-11T06:34:33.163Z,16.07
2019-01-11T06:37:02.365Z,19.80
2019-01-11T06:39:32.292Z,23.77
2019-01-11T06:42:03.799Z,20.50
2019-01-11T06:44:38.775Z,18.50
2019-01-11T06:47:04.235Z,20.27
2019-01-11T06:49:33.758Z,15.97
2019-01-11T06:52:04.658Z,15.17
2019-01-11T06:54:34.308Z,15.20
2019-01-11T06:57:03.606Z,16.17
2019-01-11T06:59:34.117Z,20.10
2019-01-11T07:02:03.647Z,16.27
2019-01-11T07:04:33.686Z,12.60
2019-01-11T07:07:02.938Z,14.50
2019-01-11T07:09:32.836Z,14.57
2019-01-11T07:12:02.829Z,14.13
2019-01-11T07:14:36.402Z,11.63
2019-01-11T07:17:06.328Z,13.53
2019-01-11T07:19:36.195Z,14.03
2019-01-11T07:22:06.688Z,12.10
2019-01-11T07:24:35.984Z,13.60
2019-01-11T07:27:05.564Z,12.40
2019-01-11T07:29:34.829Z,12.60
2019-01-11T07:32:04.150Z,13.17
2019-01-11T07:34:34.022Z,11.67
2019-01-11T07:37:03.275Z,13.67
2019-01-11T07:39:33.167Z,12.57
2019-01-11T07:42:03.297Z,14.47
2019-01-11T07:44:32.691Z,15.03
2019-01-11T07:47:01.992Z,14.77
2019-01-11T07:49:31.258Z,11.77
2019-01-11T07:52:01.855Z,14.53
2019-01-11T07:54:31.720Z,12.40
2019-01-11T07:57:00.977Z,12.87
2019-01-11T07:59:30.588Z,13.17
2019-01-11T08:01:59.900Z,14.33
2019-01-11T08:04:29.156Z,12.20
2019-01-11T08:06:58.455Z,10.70
2019-01-11T08:09:27.711Z,12.13
2019-01-11T08:11:58.244Z,12.27
2019-01-11T08:14:28.178Z,13.43
2019-01-11T08:16:57.782Z,14.07
2019-01-11T08:19:27.086Z,14.70
2019-01-11T08:21:56.348Z,12.87
2019-01-11T08:24:25.608Z,13.80
2019-01-11T08:26:55.856Z,13.17
2019-01-11T08:29:25.789Z,12.93
2019-01-11T08:31:55.043Z,13.93
2019-01-11T08:34:24.907Z,15.60
2019-01-11T08:36:54.165Z,15.17
2019-01-11T08:39:23.425Z,13.80
2019-01-11T08:41:52.724Z,14.27
2019-01-11T08:44:22.676Z,14.87
2019-01-11T08:46:53.351Z,17.87
2019-01-11T08:49:22.863Z,18.63
2019-01-11T08:51:52.164Z,18.20
2019-01-11T08:54:21.420Z,18.80
2019-01-11T08:56:51.295Z,16.07
2019-01-11T08:59:20.886Z,19.20
2019-01-11T09:01:50.155Z,18.27
2019-01-11T09:04:19.455Z,21.13
2019-01-11T09:06:48.999Z,21.47
2019-01-11T09:09:18.265Z,22.10
2019-01-11T09:11:48.211Z,18.20
2019-01-11T09:14:21.003Z,17.30
2019-01-11T09:16:50.897Z,18.17
2019-01-11T09:19:20.824Z,17.10
2019-01-11T09:21:50.085Z,16.77
2019-01-11T09:24:19.739Z,18.17
2019-01-11T09:26:51.511Z,16.90
2019-01-11T09:29:20.857Z,20.37
2019-01-11T09:31:50.203Z,18.83
2019-01-11T09:34:20.255Z,20.93
2019-01-11T09:36:49.556Z,19.40
2019-01-11T09:39:18.803Z,18.60
2019-01-11T09:41:48.734Z,23.37
2019-01-11T09:44:18.044Z,21.17
2019-01-11T09:46:48.268Z,19.83
2019-01-11T09:49:17.531Z,21.67
2019-01-11T09:51:47.579Z,20.10
2019-01-11T09:54:17.508Z,24.53
2019-01-11T09:56:47.111Z,20.23
2019-01-11T09:59:17.035Z,20.37
2019-01-11T10:01:48.599Z,20.00
2019-01-11T10:04:20.108Z,21.13
2019-01-11T10:06:51.052Z,19.27
2019-01-11T10:09:21.020Z,20.70
2019-01-11T10:11:50.599Z,20.50
2019-01-11T10:14:19.847Z,21.43
2019-01-11T10:16:49.150Z,22.07
2019-01-11T10:19:19.891Z,32.60
2019-01-11T10:21:49.552Z,24.60
2019-01-11T10:24:18.804Z,26.77
2019-01-11T10:26:48.063Z,22.57
2019-01-11T10:29:17.363Z,26.67
2019-01-11T10:31:46.615Z,24.60
2019-01-11T10:34:18.000Z,20.83
2019-01-11T10:36:47.251Z,20.80
2019-01-11T10:39:17.633Z,21.93
2019-01-11T10:41:46.887Z,21.73
2019-01-11T10:44:16.148Z,24.00
2019-01-11T10:46:49.054Z,22.17
2019-01-11T10:49:16.431Z,19.23
2019-01-11T10:51:45.659Z,19.00
2019-01-11T10:54:17.267Z,20.03
2019-01-11T10:56:47.345Z,20.87
2019-01-11T10:59:16.605Z,20.60
2019-01-11T11:01:47.144Z,20.23
2019-01-11T11:04:17.072Z,21.10
2019-01-11T11:06:46.352Z,21.20
2019-01-11T11:09:15.647Z,21.27
2019-01-11T11:11:45.472Z,29.63
2019-01-11T11:14:14.729Z,22.70
2019-01-11T11:16:44.028Z,26.33
2019-01-11T11:19:13.323Z,24.37
2019-01-11T11:21:42.619Z,25.97
2019-01-11T11:24:12.219Z,27.20
2019-01-11T11:26:41.481Z,30.23
2019-01-11T11:29:10.780Z,33.27
2019-01-11T11:31:40.332Z,28.30
2019-01-11T11:34:10.200Z,33.03
2019-01-11T11:36:40.024Z,34.30
2019-01-11T11:39:10.179Z,38.77
2019-01-11T11:41:40.672Z,33.60
2019-01-11T11:44:10.540Z,39.30
2019-01-11T11:46:40.471Z,45.93
2019-01-11T11:49:09.732Z,33.23
2019-01-11T11:51:41.419Z,29.93
2019-01-11T11:54:09.904Z,32.60
2019-01-11T11:56:39.212Z,28.30
2019-01-11T11:59:08.470Z,24.90
2019-01-11T12:01:38.401Z,30.87
2019-01-11T12:04:08.007Z,26.47
2019-01-11T12:06:37.839Z,32.47
2019-01-11T12:09:08.408Z,33.03
2019-01-11T12:11:37.771Z,28.50
2019-01-11T12:14:07.831Z,22.30
2019-01-11T12:16:37.699Z,20.93
2019-01-11T12:19:07.067Z,22.03
2019-01-11T12:21:36.363Z,18.53
2019-01-11T12:24:05.616Z,16.90
2019-01-11T12:26:35.736Z,17.87
2019-01-11T12:29:05.108Z,17.17
2019-01-11T12:31:34.413Z,17.40
2019-01-11T12:34:04.239Z,20.20
2019-01-11T12:36:34.564Z,17.35
2019-01-11T12:39:05.439Z,16.43
2019-01-11T12:41:35.007Z,20.07
2019-01-11T12:44:04.312Z,18.07
2019-01-11T12:46:34.736Z,23.07
2019-01-11T12:49:03.991Z,25.57
2019-01-11T12:51:34.131Z,23.85
2019-01-11T12:54:03.773Z,21.23
2019-01-11T12:56:34.110Z,20.17
2019-01-11T12:59:03.317Z,24.03
2019-01-11T13:01:33.246Z,27.87
2019-01-11T13:04:02.812Z,24.67
2019-01-11T13:06:32.057Z,22.17
2019-01-11T13:09:01.936Z,23.27
2019-01-11T13:11:32.403Z,25.72
2019-01-11T13:14:01.663Z,23.30
2019-01-11T13:16:31.569Z,27.17
2019-01-11T13:19:00.874Z,27.97
2019-01-11T13:21:31.271Z,20.93
2019-01-11T13:24:00.524Z,20.73
2019-01-11T13:26:30.118Z,18.60
2019-01-11T13:29:01.008Z,16.23
2019-01-11T13:31:30.948Z,17.10
2019-01-11T13:34:00.215Z,17.13
2019-01-11T13:36:29.496Z,16.40
2019-01-11T13:38:58.880Z,18.03
2019-01-11T13:41:28.136Z,22.97
2019-01-11T13:43:57.391Z,19.37
2019-01-11T13:46:27.365Z,18.00
2019-01-11T13:48:56.625Z,15.50
2019-01-11T13:51:26.204Z,13.00
2019-01-11T13:53:55.503Z,11.77
2019-01-11T13:56:25.375Z,13.83
2019-01-11T13:58:55.199Z,12.90
2019-01-11T14:01:25.971Z,13.30
2019-01-11T14:03:55.905Z,14.43
2019-01-11T14:06:25.865Z,12.23
2019-01-11T14:08:55.167Z,11.27
2019-01-11T14:11:25.225Z,11.03
2019-01-11T14:13:55.192Z,11.77
2019-01-11T14:16:24.492Z,11.40
2019-01-11T14:18:53.737Z,11.23
2019-01-11T14:21:23.864Z,10.57
2019-01-11T14:23:53.776Z,11.93
2019-01-11T14:26:23.088Z,9.97
2019-01-11T14:28:52.331Z,10.07
2019-01-11T14:31:21.583Z,10.60
2019-01-11T14:33:51.442Z,9.13
2019-01-11T14:36:20.691Z,9.30
2019-01-11T14:38:50.019Z,9.00
2019-01-11T14:41:19.876Z,8.93
2019-01-11T14:43:50.036Z,8.40
2019-01-11T14:46:19.333Z,8.23
2019-01-11T14:48:49.253Z,9.83
2019-01-11T14:51:18.500Z,9.33
2019-01-11T14:53:48.620Z,9.90
2019-01-11T14:56:17.865Z,9.00
2019-01-11T14:58:47.112Z,8.37
2019-01-11T15:01:16.404Z,8.70
2019-01-11T15:03:46.225Z,9.63
2019-01-11T15:06:15.472Z,11.80
2019-01-11T15:08:45.096Z,12.30
2019-01-11T15:11:14.396Z,9.87
2019-01-11T15:13:44.621Z,9.87
2019-01-11T15:16:13.872Z,10.93
2019-01-11T15:18:43.160Z,9.90
2019-01-11T15:21:13.419Z,12.03
2019-01-11T15:23:44.212Z,12.00
2019-01-11T15:26:14.036Z,11.78
2019-01-11T15:28:43.607Z,13.67
2019-01-11T15:31:13.563Z,10.97
2019-01-11T15:33:42.827Z,11.50
2019-01-11T15:36:12.428Z,14.10
2019-01-11T15:38:41.899Z,11.03
2019-01-11T15:41:11.147Z,10.90
2019-01-11T15:43:40.404Z,10.47
2019-01-11T15:46:15.114Z,12.63
2019-01-11T15:48:43.212Z,10.97
2019-01-11T15:51:13.148Z,11.73
2019-01-11T15:53:42.980Z,12.27
2019-01-11T15:56:13.131Z,10.53
2019-01-11T15:58:42.375Z,12.10
2019-01-11T16:01:11.631Z,10.10
2019-01-11T16:03:41.500Z,9.80
2019-01-11T16:06:25.247Z,9.50
2019-01-11T16:09:13.120Z,9.83
2019-01-11T16:11:48.650Z,9.77
2019-01-11T16:14:39.204Z,10.47
2019-01-11T16:17:16.118Z,11.43
2019-01-11T16:19:46.336Z,11.13
2019-01-11T16:22:16.445Z,11.70
2019-01-11T16:24:45.699Z,12.63
2019-01-11T16:27:14.959Z,13.13
2019-01-11T16:29:44.264Z,11.03
2019-01-11T16:32:13.649Z,11.50
2019-01-11T16:34:42.896Z,11.53
2019-01-11T16:37:12.585Z,13.80
2019-01-11T16:39:41.852Z,12.10
2019-01-11T16:42:13.126Z,12.50
2019-01-11T16:44:42.376Z,13.07
2019-01-11T16:47:12.036Z,14.70
2019-01-11T16:49:41.956Z,13.10
2019-01-11T16:52:15.306Z,17.07
2019-01-11T16:54:43.370Z,15.00
2019-01-11T16:57:12.667Z,14.50
2019-01-11T16:59:41.923Z,15.70
2019-01-11T17:02:11.223Z,14.70
2019-01-11T17:04:40.479Z,15.13
2019-01-11T17:07:09.737Z,15.03
2019-01-11T17:09:39.041Z,14.80
2019-01-11T17:12:08.301Z,17.60
2019-01-11T17:14:38.702Z,18.50
2019-01-11T17:17:08.004Z,20.80
2019-01-11T17:19:37.825Z,20.90
2019-01-11T17:22:07.130Z,21.30
2019-01-11T17:24:36.376Z,23.83
2019-01-11T17:27:06.694Z,20.17
2019-01-11T17:29:37.240Z,18.27
2019-01-11T17:32:06.495Z,17.63
2019-01-11T17:34:35.795Z,19.60
2019-01-11T17:37:05.108Z,19.07
2019-01-11T17:39:35.079Z,20.07
2019-01-11T17:42:04.912Z,17.90
2019-01-11T17:44:34.568Z,17.23
2019-01-11T17:47:03.820Z,18.50
2019-01-11T17:49:33.082Z,17.50
2019-01-11T17:52:02.375Z,17.73
2019-01-11T17:54:31.636Z,15.97
2019-01-11T17:57:00.933Z,15.77
2019-01-11T17:59:30.185Z,14.67
2019-01-11T18:01:59.446Z,14.53
2019-01-11T18:04:29.084Z,13.70
2019-01-11T18:07:03.068Z,11.67
2019-01-11T18:09:33.332Z,12.13
2019-01-11T18:12:02.589Z,11.40
2019-01-11T18:14:32.844Z,11.00
2019-01-11T18:17:02.808Z,11.10
2019-01-11T18:19:32.060Z,10.87
2019-01-11T18:22:01.313Z,10.33
2019-01-11T18:24:31.574Z,11.97
2019-01-11T18:27:01.551Z,13.00
2019-01-11T18:29:32.440Z,13.20
2019-01-11T18:32:02.821Z,13.20
2019-01-11T18:34:32.068Z,13.20
2019-01-11T18:37:02.916Z,14.73
2019-01-11T18:39:32.889Z,13.80
2019-01-11T18:42:02.149Z,13.47
2019-01-11T18:44:32.243Z,14.27
2019-01-11T18:47:01.545Z,13.27
2019-01-11T18:49:30.800Z,11.40
2019-01-11T18:52:00.056Z,9.97
2019-01-11T18:54:29.347Z,10.53
2019-01-11T18:56:59.976Z,9.30
2019-01-11T18:59:29.588Z,9.47
2019-01-11T19:01:59.912Z,7.87
2019-01-11T19:04:30.253Z,8.00
2019-01-11T19:07:00.150Z,7.17
2019-01-11T19:09:29.455Z,6.90
2019-01-11T19:11:58.699Z,5.67
2019-01-11T19:14:27.947Z,6.33
2019-01-11T19:16:57.256Z,7.40
2019-01-11T19:19:27.172Z,5.30
2019-01-11T19:21:56.419Z,7.13
2019-01-11T19:24:25.716Z,7.33
2019-01-11T19:26:56.212Z,6.37
2019-01-11T19:29:25.503Z,5.50
2019-01-11T19:31:55.468Z,5.47
2019-01-11T19:34:24.720Z,4.60
2019-01-11T19:36:53.968Z,5.70
2019-01-11T19:39:23.832Z,6.20
2019-01-11T19:41:54.464Z,5.37
2019-01-11T19:44:23.756Z,4.80
2019-01-11T19:46:53.016Z,5.80
2019-01-11T19:49:22.274Z,5.33
2019-01-11T19:51:51.887Z,6.20
2019-01-11T19:54:21.131Z,5.27
2019-01-11T19:56:51.182Z,3.63
2019-01-11T19:59:21.803Z,5.60
2019-01-11T20:01:52.126Z,4.83
2019-01-11T20:04:22.279Z,4.43
2019-01-11T20:06:52.167Z,7.10
2019-01-11T20:09:21.456Z,7.77
2019-01-11T20:11:51.118Z,6.93
2019-01-11T20:14:21.028Z,7.53
2019-01-11T20:16:50.298Z,9.80
2019-01-11T20:19:19.560Z,8.87
2019-01-11T20:21:48.857Z,10.27
2019-01-11T20:24:18.769Z,9.80
2019-01-11T20:26:48.862Z,8.07
2019-01-11T20:29:18.471Z,11.27
2019-01-11T20:31:47.721Z,7.07
2019-01-11T20:34:17.280Z,11.97
2019-01-11T20:36:49.784Z,8.90
2019-01-11T20:39:19.360Z,9.80
2019-01-11T20:41:48.972Z,10.80
2019-01-11T20:44:18.221Z,7.23
2019-01-11T20:46:47.524Z,11.07
2019-01-11T20:49:16.767Z,10.03
2019-01-11T20:51:46.059Z,12.27
2019-01-11T20:54:15.360Z,8.90
2019-01-11T20:56:44.662Z,10.73
2019-01-11T20:59:14.904Z,9.77
2019-01-11T21:01:44.152Z,11.60
2019-01-11T21:04:14.424Z,11.83
2019-01-11T21:06:43.676Z,8.70
2019-01-11T21:09:12.978Z,11.40
2019-01-11T21:11:43.464Z,12.83
2019-01-11T21:14:12.715Z,10.83
2019-01-11T21:16:42.011Z,12.70
2019-01-11T21:19:11.827Z,10.90
2019-01-11T21:21:41.080Z,9.60
2019-01-11T21:24:11.400Z,10.77
2019-01-11T21:26:41.604Z,11.37
2019-01-11T21:29:11.227Z,10.30
2019-01-11T21:31:41.048Z,12.90
2019-01-11T21:34:10.865Z,12.43
2019-01-11T21:36:41.399Z,8.70
2019-01-11T21:39:10.645Z,9.10
2019-01-11T21:41:40.777Z,13.88
2019-01-11T21:44:10.732Z,12.70
2019-01-11T21:46:40.819Z,18.42
2019-01-11T21:49:10.063Z,14.97
2019-01-11T21:51:39.319Z,10.07
2019-01-11T21:54:08.609Z,11.70
2019-01-11T21:56:38.263Z,10.53
2019-01-11T21:59:07.869Z,12.53
2019-01-11T22:01:37.788Z,13.27
2019-01-11T22:04:07.752Z,10.97
2019-01-11T22:06:38.333Z,13.73
2019-01-11T22:09:08.256Z,13.13
2019-01-11T22:11:37.512Z,10.07
2019-01-11T22:14:08.044Z,12.90
2019-01-11T22:16:37.288Z,11.97
2019-01-11T22:19:06.549Z,16.67
2019-01-11T22:21:36.413Z,11.13
2019-01-11T22:24:06.481Z,9.07
2019-01-11T22:26:35.779Z,12.13
2019-01-11T22:29:05.324Z,14.90
2019-01-11T22:31:34.580Z,11.33
2019-01-11T22:34:03.883Z,8.57
2019-01-11T22:36:33.136Z,15.60
2019-01-11T22:39:03.819Z,13.43
2019-01-11T22:41:33.868Z,13.27
2019-01-11T22:44:03.865Z,14.83
2019-01-11T22:46:33.503Z,11.83
2019-01-11T22:49:02.807Z,11.80
2019-01-11T22:51:32.728Z,14.83
2019-01-11T22:54:09.942Z,13.60
2019-01-11T22:56:34.479Z,13.30
2019-01-11T22:59:03.778Z,11.87
2019-01-11T23:01:46.599Z,16.23
2019-01-11T23:04:16.464Z,13.23
2019-01-11T23:06:49.020Z,12.60
2019-01-11T23:09:18.940Z,13.13
2019-01-11T23:11:54.460Z,14.47
2019-01-11T23:14:24.329Z,14.00
